createdAt,value
2022-10-17T00:00:37.629Z,101144.75
2022-10-17T00:03:04.691Z,101139.34
2022-10-17T00:05:31.624Z,101134.88
2022-10-17T00:07:58.365Z,101160.31
2022-10-17T00:10:25.329Z,101163.56
2022-10-17T00:12:53.013Z,101163.16
2022-10-17T00:15:21.156Z,101144.56
2022-10-17T00:17:48.010Z,101167.84
2022-10-17T00:20:15.666Z,101153.88
2022-10-17T00:22:42.798Z,101171.44
2022-10-17T00:25:10.115Z,101166.28
2022-10-17T00:27:40.978Z,101167.84
2022-10-17T00:30:12.204Z,101171.41
2022-10-17T00:32:39.124Z,101173.03
2022-10-17T00:35:07.028Z,101166.69
2022-10-17T00:37:34.294Z,101158.28
2022-10-17T00:40:01.262Z,101171.38
2022-10-17T00:42:28.777Z,101165.47
2022-10-17T00:45:36.561Z,101168.78
2022-10-17T00:48:09.506Z,101161.53
2022-10-17T00:50:38.719Z,101145.81
2022-10-17T00:53:07.801Z,101149.38
2022-10-17T00:55:38.855Z,101144.91
2022-10-17T00:58:06.865Z,101153.84
2022-10-17T01:00:33.857Z,101154.69
2022-10-17T01:03:00.697Z,101142.34
2022-10-17T01:05:27.431Z,101141.44
2022-10-17T01:07:54.850Z,101159.97
2022-10-17T01:10:27.681Z,101153.00
2022-10-17T01:13:37.539Z,101150.22
2022-10-17T01:16:16.320Z,101143.63
2022-10-17T01:19:29.681Z,101142.22
2022-10-17T01:22:12.650Z,101142.56
2022-10-17T01:25:22.856Z,101151.22
2022-10-17T01:28:34.416Z,101146.81
2022-10-17T01:31:40.308Z,101152.63
2022-10-17T01:34:28.180Z,101156.66
2022-10-17T01:36:54.784Z,101154.50
2022-10-17T01:39:38.397Z,101147.22
2022-10-17T01:42:58.188Z,101153.66
2022-10-17T01:45:41.002Z,101158.28
2022-10-17T01:48:13.584Z,101157.06
2022-10-17T01:50:48.477Z,101154.56
2022-10-17T01:53:27.399Z,101154.50
2022-10-17T01:55:59.587Z,101148.81
2022-10-17T01:58:34.421Z,101157.91
2022-10-17T02:01:06.304Z,101155.41
2022-10-17T02:03:34.666Z,101152.31
2022-10-17T02:06:01.582Z,101147.00
2022-10-17T02:08:43.652Z,101160.84
2022-10-17T02:11:13.764Z,101167.56
2022-10-17T02:13:52.688Z,101160.78
2022-10-17T02:16:38.478Z,101164.25
2022-10-17T02:19:16.023Z,101165.50
2022-10-17T02:22:00.935Z,101164.66
2022-10-17T02:24:52.423Z,101174.72
2022-10-17T02:27:49.489Z,101177.84
2022-10-17T02:30:29.890Z,101183.44
2022-10-17T02:33:01.569Z,101124.47
2022-10-17T02:35:32.784Z,101160.22
2022-10-17T02:38:00.944Z,101173.72
2022-10-17T02:40:30.836Z,101171.75
2022-10-17T02:43:00.098Z,101178.75
2022-10-17T02:45:28.689Z,101192.72
2022-10-17T02:48:09.387Z,101193.06
2022-10-17T02:51:10.337Z,101202.22
2022-10-17T02:53:57.216Z,101197.50
2022-10-17T02:56:26.322Z,101194.28
2022-10-17T02:58:58.993Z,101179.44
2022-10-17T03:01:26.400Z,101185.88
2022-10-17T03:04:12.318Z,101188.97
2022-10-17T03:06:40.192Z,101192.31
2022-10-17T03:09:07.169Z,101173.72
2022-10-17T03:11:34.220Z,101198.03
2022-10-17T03:14:00.892Z,101187.50
2022-10-17T03:16:27.608Z,101193.34
2022-10-17T03:18:54.370Z,101182.66
2022-10-17T03:21:21.265Z,101200.47
2022-10-17T03:23:48.068Z,101190.19
2022-10-17T03:26:14.852Z,101176.63
2022-10-17T03:28:41.670Z,101192.88
2022-10-17T03:31:11.108Z,101198.84
2022-10-17T03:33:38.278Z,101191.28
2022-10-17T03:36:10.505Z,101182.47
2022-10-17T03:38:37.822Z,101193.78
2022-10-17T03:41:05.266Z,101194.47
2022-10-17T03:43:32.477Z,101199.03
2022-10-17T03:46:00.849Z,101193.50
2022-10-17T03:48:29.338Z,101176.19
2022-10-17T03:51:05.552Z,101202.06
2022-10-17T03:53:32.584Z,101197.88
2022-10-17T03:56:10.710Z,101196.78
2022-10-17T03:58:37.609Z,101195.13
2022-10-17T04:01:15.651Z,101201.72
2022-10-17T04:03:43.250Z,101200.88
2022-10-17T04:06:12.991Z,101193.78
2022-10-17T04:08:39.993Z,101194.25
2022-10-17T04:11:09.203Z,101199.53
2022-10-17T04:13:36.515Z,101198.53
2022-10-17T04:16:09.156Z,101196.44
2022-10-17T04:18:35.851Z,101172.59
2022-10-17T04:21:04.805Z,101196.72
2022-10-17T04:23:31.956Z,101207.53
2022-10-17T04:26:00.334Z,101204.84
2022-10-17T04:28:28.051Z,101209.66
2022-10-17T04:31:09.924Z,101198.31
2022-10-17T04:33:36.628Z,101211.59
2022-10-17T04:36:06.143Z,101211.53
2022-10-17T04:38:33.566Z,101209.84
2022-10-17T04:41:06.454Z,101227.69
2022-10-17T04:43:35.671Z,101230.47
2022-10-17T04:46:05.133Z,101215.88
2022-10-17T04:48:32.375Z,101222.69
2022-10-17T04:51:12.615Z,101228.63
2022-10-17T04:53:41.351Z,101236.91
2022-10-17T04:56:10.640Z,101236.66
2022-10-17T04:58:38.460Z,101244.34
2022-10-17T05:01:11.217Z,101249.06
2022-10-17T05:03:38.075Z,101237.63
2022-10-17T05:06:12.986Z,101254.13
2022-10-17T05:08:40.030Z,101250.59
2022-10-17T05:11:16.651Z,101262.84
2022-10-17T05:13:43.343Z,101258.06
2022-10-17T05:16:10.898Z,101272.97
2022-10-17T05:18:37.583Z,101267.03
2022-10-17T05:21:04.834Z,101279.59
2022-10-17T05:23:31.567Z,101289.19
2022-10-17T05:25:58.415Z,101297.00
2022-10-17T05:28:25.258Z,101292.28
2022-10-17T05:30:51.983Z,101272.38
2022-10-17T05:33:18.786Z,101297.44
2022-10-17T05:35:45.457Z,101280.47
2022-10-17T05:38:12.124Z,101297.09
2022-10-17T05:40:39.594Z,101299.44
2022-10-17T05:43:06.505Z,101297.09
2022-10-17T05:45:33.199Z,101302.19
2022-10-17T05:47:59.922Z,101304.50
2022-10-17T05:50:26.651Z,101314.34
2022-10-17T05:52:54.641Z,101309.19
2022-10-17T05:55:22.251Z,101310.75
2022-10-17T05:57:50.502Z,101328.00
2022-10-17T06:00:17.372Z,101324.59
2022-10-17T06:02:46.130Z,101327.59
2022-10-17T06:05:14.225Z,101323.28
2022-10-17T06:07:41.442Z,101324.75
2022-10-17T06:10:08.502Z,101326.63
2022-10-17T06:12:35.172Z,101329.72
2022-10-17T06:15:02.106Z,101325.63
2022-10-17T06:17:30.419Z,101305.47
2022-10-17T06:19:57.850Z,101316.97
2022-10-17T06:22:24.750Z,101317.53
2022-10-17T06:24:53.454Z,101322.66
2022-10-17T06:27:21.264Z,101334.34
2022-10-17T06:29:49.283Z,101324.38
2022-10-17T06:32:16.179Z,101325.53
2022-10-17T06:34:43.067Z,101309.50
2022-10-17T06:37:09.754Z,101321.81
2022-10-17T06:39:36.702Z,101319.91
2022-10-17T06:42:04.327Z,101337.31
2022-10-17T06:44:32.073Z,101338.97
2022-10-17T06:46:59.803Z,101315.34
2022-10-17T06:49:27.050Z,101334.81
2022-10-17T06:51:54.283Z,101314.97
2022-10-17T06:54:21.161Z,101345.06
2022-10-17T06:56:48.022Z,101342.03
2022-10-17T06:59:15.753Z,101334.00
2022-10-17T07:01:46.252Z,101343.50
2022-10-17T07:04:14.437Z,101335.47
2022-10-17T07:06:41.650Z,101324.47
2022-10-17T07:09:08.970Z,101323.19
2022-10-17T07:11:35.780Z,101330.06
2022-10-17T07:14:02.840Z,101341.34
2022-10-17T07:16:29.599Z,101338.38
2022-10-17T07:18:56.490Z,101293.94
2022-10-17T07:21:23.661Z,101334.94
2022-10-17T07:23:50.395Z,101337.16
2022-10-17T07:26:18.914Z,101341.53
2022-10-17T07:28:48.368Z,101341.25
2022-10-17T07:31:17.839Z,101321.00
2022-10-17T07:36:13.881Z,101334.97
2022-10-17T07:38:42.314Z,101337.94
2022-10-17T07:41:11.491Z,101335.84
2022-10-17T07:43:39.127Z,101321.38
2022-10-17T07:46:06.017Z,101324.19
2022-10-17T07:48:33.043Z,101326.19
2022-10-17T07:51:03.761Z,101325.06
2022-10-17T07:53:30.935Z,101321.66
2022-10-17T07:55:58.308Z,101324.53
2022-10-17T07:58:26.052Z,101332.25
2022-10-17T08:00:53.972Z,101330.06
2022-10-17T08:03:20.722Z,101344.06
2022-10-17T08:05:47.404Z,101340.75
2022-10-17T08:08:14.191Z,101326.94
2022-10-17T08:10:40.832Z,101328.38
2022-10-17T08:13:07.657Z,101333.50
2022-10-17T08:15:34.481Z,101328.13
2022-10-17T08:18:01.233Z,101333.16
2022-10-17T08:20:28.061Z,101326.16
2022-10-17T08:22:55.808Z,101329.22
2022-10-17T08:25:23.222Z,101327.16
2022-10-17T08:27:50.683Z,101314.31
2022-10-17T08:30:18.000Z,101334.47
2022-10-17T08:32:45.010Z,101334.94
2022-10-17T08:35:12.211Z,101331.09
2022-10-17T08:37:38.912Z,101322.00
2022-10-17T08:40:06.162Z,101324.25
2022-10-17T08:42:59.034Z,101326.72
2022-10-17T08:46:03.281Z,101328.50
2022-10-17T08:48:34.429Z,101330.34
2022-10-17T08:51:13.241Z,101335.59
2022-10-17T08:53:55.932Z,101328.03
2022-10-17T08:56:47.669Z,101320.66
2022-10-17T08:59:20.317Z,101325.22
2022-10-17T09:02:08.748Z,101311.88
2022-10-17T09:05:07.682Z,101297.09
2022-10-17T09:08:02.378Z,101312.41
2022-10-17T09:10:42.849Z,101299.81
2022-10-17T09:13:18.787Z,101307.91
2022-10-17T09:16:03.014Z,101326.72
2022-10-17T09:18:40.769Z,101325.59
2022-10-17T09:21:33.445Z,101326.16
2022-10-17T09:24:09.503Z,101314.66
2022-10-17T09:26:44.495Z,101310.22
2022-10-17T09:29:20.334Z,101326.56
2022-10-17T09:32:15.961Z,101316.38
2022-10-17T09:34:42.878Z,101309.84
2022-10-17T09:37:17.491Z,101309.84
2022-10-17T09:39:45.072Z,101312.78
2022-10-17T09:42:15.194Z,101328.91
2022-10-17T09:44:53.329Z,101305.81
2022-10-17T09:47:34.404Z,101303.22
2022-10-17T09:50:02.245Z,101291.84
2022-10-17T09:52:40.251Z,101302.47
2022-10-17T09:55:16.029Z,101313.66
2022-10-17T09:57:51.939Z,101302.94
2022-10-17T10:00:28.872Z,101299.44
2022-10-17T10:03:18.541Z,101299.78
2022-10-17T10:06:07.041Z,101313.78
2022-10-17T10:08:51.509Z,101303.25
2022-10-17T10:11:22.750Z,101294.19
2022-10-17T10:13:51.696Z,101294.31
2022-10-17T10:16:32.037Z,101303.28
2022-10-17T10:18:59.037Z,101300.19
2022-10-17T10:21:28.024Z,101296.94
2022-10-17T10:24:15.109Z,101268.28
2022-10-17T10:26:45.221Z,101280.25
2022-10-17T10:29:36.964Z,101286.81
2022-10-17T10:35:19.082Z,101284.00
2022-10-17T10:37:50.548Z,101272.34
2022-10-17T10:40:47.596Z,101261.97
2022-10-17T10:43:24.826Z,101269.63
2022-10-17T10:45:58.849Z,101267.78
2022-10-17T10:48:30.310Z,101288.09
2022-10-17T10:51:14.111Z,101270.00
2022-10-17T10:53:58.844Z,101276.34
2022-10-17T10:56:40.677Z,101269.63
2022-10-17T10:59:07.420Z,101278.75
2022-10-17T11:02:11.266Z,101263.88
2022-10-17T11:04:48.266Z,101267.25
2022-10-17T11:07:14.950Z,101260.59
2022-10-17T11:10:00.793Z,101269.34
2022-10-17T11:12:35.816Z,101259.47
2022-10-17T11:15:19.523Z,101269.72
2022-10-17T11:17:57.179Z,101249.75
2022-10-17T11:20:53.732Z,101255.09
2022-10-17T11:23:42.774Z,101258.19
2022-10-17T11:26:26.093Z,101223.63
2022-10-17T11:28:57.118Z,101240.06
2022-10-17T11:31:29.275Z,101242.38
2022-10-17T11:34:04.590Z,101241.03
2022-10-17T11:36:36.520Z,101238.38
2022-10-17T11:39:14.907Z,101244.34
2022-10-17T11:41:55.237Z,101227.69
2022-10-17T11:44:35.613Z,101237.28
2022-10-17T11:47:15.158Z,101230.13
2022-10-17T11:49:51.529Z,101242.47
2022-10-17T11:52:55.462Z,101242.56
2022-10-17T11:55:28.851Z,101245.88
2022-10-17T11:58:17.163Z,101240.59
2022-10-17T12:01:04.555Z,101253.78
2022-10-17T12:03:48.294Z,101241.41
2022-10-17T12:06:39.791Z,101242.53
2022-10-17T12:09:19.115Z,101240.97
2022-10-17T12:11:56.804Z,101245.38
2022-10-17T12:14:45.820Z,101242.91
2022-10-17T12:17:29.090Z,101268.09
2022-10-17T12:20:21.725Z,101252.69
2022-10-17T12:22:53.318Z,101252.47
2022-10-17T12:25:23.147Z,101246.66
2022-10-17T12:27:51.213Z,101261.28
2022-10-17T12:30:21.842Z,101252.34
2022-10-17T12:33:08.332Z,101253.75
2022-10-17T12:35:37.602Z,101259.72
2022-10-17T12:38:24.235Z,101261.84
2022-10-17T12:40:54.062Z,101257.94
2022-10-17T12:43:30.024Z,101253.41
2022-10-17T12:46:05.906Z,101257.28
2022-10-17T12:48:38.765Z,101249.72
2022-10-17T12:54:12.804Z,101254.88
2022-10-17T12:56:45.904Z,101248.31
2022-10-17T12:59:25.726Z,101238.44
2022-10-17T13:01:57.995Z,101236.13
2022-10-17T13:04:25.821Z,101240.22
2022-10-17T13:06:59.324Z,101252.34
2022-10-17T13:09:38.835Z,101245.41
2022-10-17T13:12:13.591Z,101237.22
2022-10-17T13:14:42.998Z,101255.06
2022-10-17T13:17:23.425Z,101247.84
2022-10-17T13:19:50.307Z,101238.88
2022-10-17T13:22:23.349Z,101233.13
2022-10-17T13:24:52.207Z,101240.25
2022-10-17T13:27:30.608Z,101234.22
2022-10-17T13:29:59.982Z,101234.22
2022-10-17T13:32:35.785Z,101235.00
2022-10-17T13:35:11.575Z,101244.34
2022-10-17T13:37:41.747Z,101239.56
2022-10-17T13:40:44.006Z,101238.78
2022-10-17T13:43:15.981Z,101238.97
2022-10-17T13:45:49.679Z,101242.28
2022-10-17T13:48:22.342Z,101231.13
2022-10-17T13:50:52.479Z,101246.56
2022-10-17T13:53:47.225Z,101241.00
2022-10-17T13:56:28.908Z,101238.03
2022-10-17T13:58:59.857Z,101228.00
2022-10-17T14:01:29.165Z,101238.09
2022-10-17T14:04:07.682Z,101239.53
2022-10-17T14:06:45.102Z,101222.44
2022-10-17T14:09:23.549Z,101233.06
2022-10-17T14:12:07.249Z,101234.00
2022-10-17T14:14:58.115Z,101234.19
2022-10-17T14:17:25.399Z,101223.72
2022-10-17T14:20:08.176Z,101232.91
2022-10-17T14:22:40.967Z,101243.34
2022-10-17T14:25:29.991Z,101241.50
2022-10-17T14:28:09.280Z,101241.16
2022-10-17T14:30:55.742Z,101240.50
2022-10-17T14:33:24.479Z,101242.91
2022-10-17T14:35:56.497Z,101236.09
2022-10-17T14:38:23.642Z,101242.38
2022-10-17T14:41:41.392Z,101240.28
2022-10-17T14:44:06.670Z,101246.50
2022-10-17T14:46:35.947Z,101232.47
2022-10-17T14:49:08.586Z,101243.34
2022-10-17T14:51:44.839Z,101254.00
2022-10-17T14:54:30.394Z,101234.28
2022-10-17T14:56:57.171Z,101248.22
2022-10-17T14:59:52.047Z,101255.66
2022-10-17T15:02:13.791Z,101263.28
2022-10-17T15:04:40.689Z,101248.22
2022-10-17T15:07:07.551Z,101243.97
2022-10-17T15:09:34.367Z,101255.91
2022-10-17T15:12:02.894Z,101252.59
2022-10-17T15:14:29.608Z,101260.56
2022-10-17T15:16:56.391Z,101242.44
2022-10-17T15:19:23.093Z,101265.13
2022-10-17T15:21:49.766Z,101264.00
2022-10-17T15:24:16.556Z,101206.28
2022-10-17T15:26:43.396Z,101267.53
2022-10-17T15:29:15.395Z,101281.47
2022-10-17T15:31:42.174Z,101281.03
2022-10-17T15:34:08.823Z,101276.56
2022-10-17T15:36:42.944Z,101286.44
2022-10-17T15:39:10.757Z,101281.88
2022-10-17T15:41:38.480Z,101269.75
2022-10-17T15:44:05.439Z,101289.03
2022-10-17T15:46:34.983Z,101297.66
2022-10-17T15:49:04.131Z,101291.19
2022-10-17T15:51:30.885Z,101287.97
2022-10-17T15:53:57.777Z,101300.63
2022-10-17T15:56:36.415Z,101297.91
2022-10-17T15:59:05.545Z,101309.34
2022-10-17T16:01:33.450Z,101298.84
2022-10-17T16:04:00.290Z,101316.19
2022-10-17T16:06:27.153Z,101330.88
2022-10-17T16:08:53.932Z,101336.88
2022-10-17T16:11:37.475Z,101342.06
2022-10-17T16:14:07.626Z,101334.84
2022-10-17T16:16:34.393Z,101347.44
2022-10-17T16:19:02.358Z,101359.22
2022-10-17T16:21:34.862Z,101358.34
2022-10-17T16:24:02.298Z,101355.25
2022-10-17T16:26:29.175Z,101368.50
2022-10-17T16:28:57.915Z,101375.22
2022-10-17T16:31:30.349Z,101377.13
2022-10-17T16:33:59.571Z,101381.63
2022-10-17T16:36:26.573Z,101368.22
2022-10-17T16:38:57.067Z,101382.97
2022-10-17T16:41:26.835Z,101372.66
2022-10-17T16:43:56.099Z,101386.34
2022-10-17T16:46:23.926Z,101390.25
2022-10-17T16:48:51.000Z,101379.00
2022-10-17T16:51:19.105Z,101388.41
2022-10-17T16:53:52.955Z,101389.25
2022-10-17T16:56:22.083Z,101382.66
2022-10-17T16:58:49.120Z,101387.16
2022-10-17T17:01:21.352Z,101385.31
2022-10-17T17:03:48.665Z,101354.88
2022-10-17T17:06:19.128Z,101371.31
2022-10-17T17:08:46.815Z,101394.84
2022-10-17T17:11:19.539Z,101398.69
2022-10-17T17:13:46.897Z,101392.34
2022-10-17T17:16:20.206Z,101406.19
2022-10-17T17:18:49.378Z,101406.22
2022-10-17T17:21:16.341Z,101397.41
2022-10-17T17:23:43.741Z,101388.44
2022-10-17T17:26:21.951Z,101401.75
2022-10-17T17:28:49.971Z,101410.47
2022-10-17T17:31:25.178Z,101399.78
2022-10-17T17:33:53.033Z,101402.25
2022-10-17T17:36:25.704Z,101393.81
2022-10-17T17:38:55.687Z,101401.84
2022-10-17T17:41:23.039Z,101390.97
2022-10-17T17:43:50.224Z,101383.81
2022-10-17T17:46:18.831Z,101405.81
2022-10-17T17:48:47.344Z,101410.31
2022-10-17T17:51:17.620Z,101411.34
2022-10-17T17:53:44.877Z,101417.41
2022-10-17T17:56:17.325Z,101419.69
2022-10-17T17:58:46.647Z,101411.16
2022-10-17T18:01:21.289Z,101417.63
2022-10-17T18:03:50.634Z,101420.75
2022-10-17T18:06:18.699Z,101415.09
2022-10-17T18:08:47.822Z,101415.19
2022-10-17T18:11:17.151Z,101425.19
2022-10-17T18:13:46.401Z,101406.31
2022-10-17T18:16:13.567Z,101432.25
2022-10-17T18:18:42.274Z,101435.47
2022-10-17T18:21:10.515Z,101434.19
2022-10-17T18:23:38.906Z,101438.81
2022-10-17T18:26:05.991Z,101441.75
2022-10-17T18:31:19.583Z,101439.16
2022-10-17T18:33:46.748Z,101425.47
2022-10-17T18:36:15.761Z,101442.22
2022-10-17T18:38:43.410Z,101447.91
2022-10-17T18:41:19.043Z,101437.94
2022-10-17T18:43:47.272Z,101449.44
2022-10-17T18:46:20.650Z,101437.66
2022-10-17T18:48:48.759Z,101440.91
2022-10-17T18:51:17.448Z,101457.53
2022-10-17T18:53:46.552Z,101453.81
2022-10-17T18:56:14.457Z,101454.47
2022-10-17T18:58:41.416Z,101454.06
2022-10-17T19:01:15.689Z,101448.88
2022-10-17T19:03:44.377Z,101450.31
2022-10-17T19:06:15.009Z,101454.25
2022-10-17T19:08:42.861Z,101463.28
2022-10-17T19:11:15.910Z,101454.06
2022-10-17T19:13:43.676Z,101458.53
2022-10-17T19:16:14.235Z,101463.63
2022-10-17T19:18:41.103Z,101471.00
2022-10-17T19:21:11.299Z,101466.88
2022-10-17T19:23:38.698Z,101462.88
2022-10-17T19:26:11.283Z,101466.25
2022-10-17T19:28:39.850Z,101450.47
2022-10-17T19:31:07.009Z,101466.72
2022-10-17T19:33:34.726Z,101468.44
2022-10-17T19:36:04.735Z,101462.59
2022-10-17T19:38:31.940Z,101455.13
2022-10-17T19:43:27.576Z,101469.13
2022-10-17T19:45:56.154Z,101456.47
2022-10-17T19:48:23.741Z,101467.25
2022-10-17T19:50:50.885Z,101470.09
2022-10-17T19:53:17.788Z,101462.28
2022-10-17T19:55:44.865Z,101452.03
2022-10-17T19:58:11.854Z,101472.28
2022-10-17T20:00:38.691Z,101471.91
2022-10-17T20:03:05.371Z,101466.09
2022-10-17T20:05:32.114Z,101467.75
2022-10-17T20:07:58.758Z,101460.94
2022-10-17T20:10:25.745Z,101465.78
2022-10-17T20:12:52.442Z,101461.59
2022-10-17T20:15:19.116Z,101466.59
2022-10-17T20:17:45.849Z,101453.78
2022-10-17T20:20:12.548Z,101461.44
2022-10-17T20:22:39.354Z,101458.28
2022-10-17T20:25:06.585Z,101462.94
2022-10-17T20:27:33.410Z,101461.28
2022-10-17T20:30:01.966Z,101410.66
2022-10-17T20:32:31.089Z,101437.81
2022-10-17T20:34:58.143Z,101447.28
2022-10-17T20:37:25.445Z,101451.59
2022-10-17T20:40:10.694Z,101447.59
2022-10-17T20:42:38.842Z,101438.09
2022-10-17T20:45:06.554Z,101443.44
2022-10-17T20:47:45.982Z,101439.91
2022-10-17T20:50:14.076Z,101436.56
2022-10-17T20:52:40.806Z,101422.25
2022-10-17T20:55:07.813Z,101439.03
2022-10-17T20:57:34.559Z,101428.38
2022-10-17T21:00:01.224Z,101434.16
2022-10-17T21:02:27.922Z,101418.88
2022-10-17T21:04:54.658Z,101442.00
2022-10-17T21:07:22.316Z,101435.34
2022-10-17T21:09:49.005Z,101437.34
2022-10-17T21:12:25.856Z,101440.16
2022-10-17T21:15:03.361Z,101411.88
2022-10-17T21:17:30.108Z,101412.72
2022-10-17T21:19:57.050Z,101428.22
2022-10-17T21:22:23.916Z,101412.53
2022-10-17T21:24:50.626Z,101384.38
2022-10-17T21:27:19.424Z,101422.59
2022-10-17T21:29:46.303Z,101413.59
2022-10-17T21:32:25.222Z,101419.28
2022-10-17T21:35:00.666Z,101433.75
2022-10-17T21:37:27.485Z,101426.19
2022-10-17T21:39:54.138Z,101423.94
2022-10-17T21:42:20.830Z,101438.72
2022-10-17T21:44:47.661Z,101405.97
2022-10-17T21:47:15.327Z,101430.38
2022-10-17T21:49:42.142Z,101413.34
2022-10-17T21:52:09.211Z,101433.69
2022-10-17T21:54:36.226Z,101438.84
2022-10-17T21:57:02.891Z,101419.50
2022-10-17T21:59:32.422Z,101442.53
2022-10-17T22:01:59.133Z,101438.91
2022-10-17T22:04:26.250Z,101430.06
2022-10-17T22:06:53.470Z,101436.41
2022-10-17T22:09:25.782Z,101443.72
2022-10-17T22:11:55.979Z,101442.22
2022-10-17T22:14:24.753Z,101437.03
2022-10-17T22:16:52.103Z,101441.72
2022-10-17T22:19:22.513Z,101433.28
2022-10-17T22:21:49.717Z,101434.28
2022-10-17T22:24:18.658Z,101430.09
2022-10-17T22:26:45.928Z,101424.31
2022-10-17T22:29:13.404Z,101439.78
2022-10-17T22:31:40.952Z,101436.97
2022-10-17T22:34:10.282Z,101428.81
2022-10-17T22:36:37.057Z,101429.75
2022-10-17T22:39:04.631Z,101423.88
2022-10-17T22:41:31.535Z,101406.84
2022-10-17T22:43:58.212Z,101418.81
2022-10-17T22:46:25.482Z,101425.13
2022-10-17T22:48:52.720Z,101421.03
2022-10-17T22:51:20.623Z,101422.88
2022-10-17T22:53:47.553Z,101406.22
2022-10-17T22:56:17.281Z,101416.56
2022-10-17T22:58:44.119Z,101419.22
2022-10-17T23:01:15.147Z,101423.22
2022-10-17T23:03:42.114Z,101413.41
2022-10-17T23:06:08.893Z,101408.25
2022-10-17T23:08:35.655Z,101404.88
2022-10-17T23:11:02.376Z,101406.84
2022-10-17T23:13:29.051Z,101399.47
2022-10-17T23:15:57.098Z,101406.38
2022-10-17T23:18:25.810Z,101390.81
2022-10-17T23:20:52.838Z,101409.16
2022-10-17T23:23:20.684Z,101392.00
2022-10-17T23:25:47.549Z,101376.59
2022-10-17T23:28:14.335Z,101398.50
2022-10-17T23:30:41.318Z,101390.72
2022-10-17T23:33:09.927Z,101387.31
2022-10-17T23:35:36.633Z,101388.56
2022-10-17T23:38:03.492Z,101394.91
2022-10-17T23:40:30.435Z,101400.66
2022-10-17T23:42:57.259Z,101393.88
2022-10-17T23:45:24.010Z,101392.34
2022-10-17T23:47:50.758Z,101397.34
2022-10-17T23:50:17.668Z,101381.22
2022-10-17T23:52:44.415Z,101387.91
2022-10-17T23:55:11.385Z,101393.47
2022-10-17T23:57:38.143Z,101376.84
